Ahl Bel Hadri, Algeria

63°F / 17°C
Partly Cloudy
Humidity: 63%
Dew Point: 50°F / 10°C
Wind: NNW at 9 mph / 15 km/h
Pressure: 30.39 in / 1029 hPa (Falling)
Visibility: 5.0 miles / 8.0 kilometers
Clouds: (FEW) : 2000 ft / 609 m
Yesterday's Maximum: 66°F / 19°C
Yesterday's Minimum: 39°F / 4°C approx.
Yesterday's Heating Degree Days: 12 approx.
UV: 5 out of 16
Sunrise:7:42 AM CET
Sunset:6:51 PM CET
Moon Rise:10:19 PM CET
Moon Set:9:44 AM CET
Moon Phase Waning Gibbous
NOAA Weather Radio
No local feed.
METAR DAOO 221330Z 33008KT 300V360 8000 FEW020 17/10 Q1029
As of: 2:30 PM CET on February 22, 2019
Observed at: Oran, Algeria

View Station's History

Local Satellite

Current Satellite Forecast
Region Default Local
No Yes

View Full Screen WunderMap

Forecast

Current Satellite Forecast

Features

Weather Apps

WunderRadio

Weather Underground Apps
Check out our wide variety of mobile and setup applications.

Weather Underground Applications

Top of Page

© Copyright 2019
The Weather Company, LLC